sensor_id;sensor_type;location;lat;lon;timestamp;temperature;humidity
52731;DHT22;38624;53.242;6.974;2022-07-24T00:00:16;15.40;99.90
52731;DHT22;38624;53.242;6.974;2022-07-24T00:02:42;15.40;99.90
52731;DHT22;38624;53.242;6.974;2022-07-24T00:05:09;15.40;99.90
52731;DHT22;38624;53.242;6.974;2022-07-24T00:07:35;15.40;99.90
52731;DHT22;38624;53.242;6.974;2022-07-24T00:10:04;15.30;99.90
52731;DHT22;38624;53.242;6.974;2022-07-24T00:12:30;15.30;99.90
52731;DHT22;38624;53.242;6.974;2022-07-24T00:14:56;15.30;99.90
52731;DHT22;38624;53.242;6.974;2022-07-24T00:17:22;15.30;99.90
52731;DHT22;38624;53.242;6.974;2022-07-24T00:19:47;15.20;99.90
52731;DHT22;38624;53.242;6.974;2022-07-24T00:22:13;15.20;99.90
52731;DHT22;38624;53.242;6.974;2022-07-24T00:24:39;15.20;99.90
52731;DHT22;38624;53.242;6.974;2022-07-24T00:27:05;15.20;99.90
52731;DHT22;38624;53.242;6.974;2022-07-24T00:29:30;15.20;99.90
52731;DHT22;38624;53.242;6.974;2022-07-24T00:31:56;15.20;99.90
52731;DHT22;38624;53.242;6.974;2022-07-24T00:34:22;15.10;99.90
52731;DHT22;38624;53.242;6.974;2022-07-24T00:36:48;15.10;99.90
52731;DHT22;38624;53.242;6.974;2022-07-24T00:39:14;15.10;99.90
52731;DHT22;38624;53.242;6.974;2022-07-24T00:41:40;15.10;99.90
52731;DHT22;38624;53.242;6.974;2022-07-24T00:44:14;15.10;99.90
52731;DHT22;38624;53.242;6.974;2022-07-24T00:46:42;15.10;99.90
52731;DHT22;38624;53.242;6.974;2022-07-24T00:49:11;15.00;99.90
52731;DHT22;38624;53.242;6.974;2022-07-24T00:51:39;15.10;99.90
52731;DHT22;38624;53.242;6.974;2022-07-24T00:54:06;15.00;99.90
52731;DHT22;38624;53.242;6.974;2022-07-24T00:56:32;15.00;99.90
52731;DHT22;38624;53.242;6.974;2022-07-24T00:59:00;15.00;99.90
52731;DHT22;38624;53.242;6.974;2022-07-24T01:01:26;15.00;99.90
52731;DHT22;38624;53.242;6.974;2022-07-24T01:03:52;15.00;99.90
52731;DHT22;38624;53.242;6.974;2022-07-24T01:06:18;14.90;99.90
52731;DHT22;38624;53.242;6.974;2022-07-24T01:08:45;14.90;99.90
52731;DHT22;38624;53.242;6.974;2022-07-24T01:11:11;14.90;99.90
52731;DHT22;38624;53.242;6.974;2022-07-24T01:13:38;14.90;99.90
52731;DHT22;38624;53.242;6.974;2022-07-24T01:16:04;14.80;99.90
52731;DHT22;38624;53.242;6.974;2022-07-24T01:18:30;14.80;99.90
52731;DHT22;38624;53.242;6.974;2022-07-24T01:20:56;14.80;99.90
52731;DHT22;38624;53.242;6.974;2022-07-24T01:23:23;14.80;99.90
52731;DHT22;38624;53.242;6.974;2022-07-24T01:25:49;14.80;99.90
52731;DHT22;38624;53.242;6.974;2022-07-24T01:28:15;14.80;99.90
52731;DHT22;38624;53.242;6.974;2022-07-24T01:30:41;14.70;99.90
52731;DHT22;38624;53.242;6.974;2022-07-24T01:33:07;14.70;99.90
52731;DHT22;38624;53.242;6.974;2022-07-24T01:35:32;14.80;99.90
52731;DHT22;38624;53.242;6.974;2022-07-24T01:37:58;14.70;99.90
52731;DHT22;38624;53.242;6.974;2022-07-24T01:40:24;14.70;99.90
52731;DHT22;38624;53.242;6.974;2022-07-24T01:42:50;14.70;99.90
52731;DHT22;38624;53.242;6.974;2022-07-24T01:45:16;14.70;99.90
52731;DHT22;38624;53.242;6.974;2022-07-24T01:47:43;14.70;99.90
52731;DHT22;38624;53.242;6.974;2022-07-24T01:50:10;14.70;99.90
52731;DHT22;38624;53.242;6.974;2022-07-24T01:52:36;14.70;99.90
52731;DHT22;38624;53.242;6.974;2022-07-24T01:55:02;14.70;99.90
52731;DHT22;38624;53.242;6.974;2022-07-24T01:57:28;14.70;99.90
52731;DHT22;38624;53.242;6.974;2022-07-24T01:59:53;14.70;99.90
52731;DHT22;38624;53.242;6.974;2022-07-24T02:02:19;14.70;99.90
52731;DHT22;38624;53.242;6.974;2022-07-24T02:04:45;14.70;99.90
52731;DHT22;38624;53.242;6.974;2022-07-24T02:07:10;14.70;99.90
52731;DHT22;38624;53.242;6.974;2022-07-24T02:09:36;14.70;99.90
52731;DHT22;38624;53.242;6.974;2022-07-24T02:12:02;14.70;99.90
52731;DHT22;38624;53.242;6.974;2022-07-24T02:14:28;14.60;99.90
52731;DHT22;38624;53.242;6.974;2022-07-24T02:16:54;14.60;99.90
52731;DHT22;38624;53.242;6.974;2022-07-24T02:19:19;14.70;99.90
52731;DHT22;38624;53.242;6.974;2022-07-24T02:21:45;14.70;99.90
52731;DHT22;38624;53.242;6.974;2022-07-24T02:24:11;14.70;99.90
52731;DHT22;38624;53.242;6.974;2022-07-24T02:26:36;14.60;99.90
52731;DHT22;38624;53.242;6.974;2022-07-24T02:29:03;14.60;99.90
52731;DHT22;38624;53.242;6.974;2022-07-24T02:31:28;14.60;99.90
52731;DHT22;38624;53.242;6.974;2022-07-24T02:33:54;14.60;99.90
52731;DHT22;38624;53.242;6.974;2022-07-24T02:36:20;14.60;99.90
52731;DHT22;38624;53.242;6.974;2022-07-24T02:38:46;14.50;99.90
52731;DHT22;38624;53.242;6.974;2022-07-24T02:41:11;14.50;99.90
52731;DHT22;38624;53.242;6.974;2022-07-24T02:43:37;14.50;99.90
52731;DHT22;38624;53.242;6.974;2022-07-24T02:46:03;14.50;99.90
52731;DHT22;38624;53.242;6.974;2022-07-24T02:48:28;14.50;99.90
52731;DHT22;38624;53.242;6.974;2022-07-24T02:50:54;14.50;99.90
52731;DHT22;38624;53.242;6.974;2022-07-24T02:53:20;14.50;99.90
52731;DHT22;38624;53.242;6.974;2022-07-24T02:55:46;14.50;99.90
52731;DHT22;38624;53.242;6.974;2022-07-24T02:58:12;14.50;99.90
52731;DHT22;38624;53.242;6.974;2022-07-24T03:00:37;14.50;99.90
52731;DHT22;38624;53.242;6.974;2022-07-24T03:03:03;14.50;99.90
52731;DHT22;38624;53.242;6.974;2022-07-24T03:05:29;14.50;99.90
52731;DHT22;38624;53.242;6.974;2022-07-24T03:07:54;14.50;99.90
52731;DHT22;38624;53.242;6.974;2022-07-24T03:10:20;14.50;99.90
52731;DHT22;38624;53.242;6.974;2022-07-24T03:12:46;14.50;99.90
52731;DHT22;38624;53.242;6.974;2022-07-24T03:15:13;14.50;99.90
52731;DHT22;38624;53.242;6.974;2022-07-24T03:17:38;14.50;99.90
52731;DHT22;38624;53.242;6.974;2022-07-24T03:20:05;14.50;99.90
52731;DHT22;38624;53.242;6.974;2022-07-24T03:22:31;14.60;99.90
52731;DHT22;38624;53.242;6.974;2022-07-24T03:24:57;14.60;99.90
52731;DHT22;38624;53.242;6.974;2022-07-24T03:27:23;14.60;99.90
52731;DHT22;38624;53.242;6.974;2022-07-24T03:29:48;14.60;99.90
52731;DHT22;38624;53.242;6.974;2022-07-24T03:32:14;14.60;99.90
52731;DHT22;38624;53.242;6.974;2022-07-24T03:34:40;14.60;99.90
52731;DHT22;38624;53.242;6.974;2022-07-24T03:37:05;14.60;99.90
52731;DHT22;38624;53.242;6.974;2022-07-24T03:39:31;14.60;99.90
52731;DHT22;38624;53.242;6.974;2022-07-24T03:41:57;14.60;99.90
52731;DHT22;38624;53.242;6.974;2022-07-24T03:44:23;14.60;99.90
52731;DHT22;38624;53.242;6.974;2022-07-24T03:46:48;14.60;99.90
52731;DHT22;38624;53.242;6.974;2022-07-24T03:49:14;14.70;99.90
52731;DHT22;38624;53.242;6.974;2022-07-24T03:51:40;14.70;99.90
52731;DHT22;38624;53.242;6.974;2022-07-24T03:54:05;14.70;99.90
52731;DHT22;38624;53.242;6.974;2022-07-24T03:56:31;14.70;99.90
52731;DHT22;38624;53.242;6.974;2022-07-24T03:58:57;14.80;99.90
52731;DHT22;38624;53.242;6.974;2022-07-24T04:01:23;14.80;99.90
52731;DHT22;38624;53.242;6.974;2022-07-24T04:03:49;14.80;99.90
52731;DHT22;38624;53.242;6.974;2022-07-24T04:06:14;14.80;99.90
52731;DHT22;38624;53.242;6.974;2022-07-24T04:08:40;14.90;99.90
52731;DHT22;38624;53.242;6.974;2022-07-24T04:11:06;14.90;99.90
52731;DHT22;38624;53.242;6.974;2022-07-24T04:13:33;15.00;99.90
52731;DHT22;38624;53.242;6.974;2022-07-24T04:15:59;15.10;99.90
52731;DHT22;38624;53.242;6.974;2022-07-24T04:18:25;15.10;99.90
52731;DHT22;38624;53.242;6.974;2022-07-24T04:20:51;15.20;99.90
52731;DHT22;38624;53.242;6.974;2022-07-24T04:23:16;15.20;99.90
52731;DHT22;38624;53.242;6.974;2022-07-24T04:25:42;15.20;99.90
52731;DHT22;38624;53.242;6.974;2022-07-24T04:28:08;15.20;99.90
52731;DHT22;38624;53.242;6.974;2022-07-24T04:30:34;15.20;99.90
52731;DHT22;38624;53.242;6.974;2022-07-24T04:33:00;15.30;99.90
52731;DHT22;38624;53.242;6.974;2022-07-24T04:35:26;15.40;99.90
52731;DHT22;38624;53.242;6.974;2022-07-24T04:37:51;15.40;99.90
52731;DHT22;38624;53.242;6.974;2022-07-24T04:40:17;15.40;99.90
52731;DHT22;38624;53.242;6.974;2022-07-24T04:42:43;15.40;99.90
52731;DHT22;38624;53.242;6.974;2022-07-24T04:45:09;15.40;99.90
52731;DHT22;38624;53.242;6.974;2022-07-24T04:47:36;15.40;99.90
52731;DHT22;38624;53.242;6.974;2022-07-24T04:50:03;15.40;99.90
52731;DHT22;38624;53.242;6.974;2022-07-24T04:52:29;15.40;99.90
52731;DHT22;38624;53.242;6.974;2022-07-24T04:54:54;15.50;99.90
52731;DHT22;38624;53.242;6.974;2022-07-24T04:57:20;15.50;99.90
52731;DHT22;38624;53.242;6.974;2022-07-24T04:59:46;15.70;99.90
52731;DHT22;38624;53.242;6.974;2022-07-24T05:02:12;15.70;99.90
52731;DHT22;38624;53.242;6.974;2022-07-24T05:04:37;15.80;99.90
52731;DHT22;38624;53.242;6.974;2022-07-24T05:07:03;15.80;99.90
52731;DHT22;38624;53.242;6.974;2022-07-24T05:09:29;15.90;99.90
52731;DHT22;38624;53.242;6.974;2022-07-24T05:11:55;15.90;99.90
52731;DHT22;38624;53.242;6.974;2022-07-24T05:14:21;16.00;99.90
52731;DHT22;38624;53.242;6.974;2022-07-24T05:16:46;16.00;99.90
52731;DHT22;38624;53.242;6.974;2022-07-24T05:19:12;16.10;99.90
52731;DHT22;38624;53.242;6.974;2022-07-24T05:21:38;16.20;99.90
52731;DHT22;38624;53.242;6.974;2022-07-24T05:24:04;16.20;99.90
52731;DHT22;38624;53.242;6.974;2022-07-24T05:26:30;16.30;99.90
52731;DHT22;38624;53.242;6.974;2022-07-24T05:28:58;16.40;99.90
52731;DHT22;38624;53.242;6.974;2022-07-24T05:31:24;16.50;99.90
52731;DHT22;38624;53.242;6.974;2022-07-24T05:33:50;16.70;99.90
52731;DHT22;38624;53.242;6.974;2022-07-24T05:36:16;16.80;99.90
52731;DHT22;38624;53.242;6.974;2022-07-24T05:38:41;16.90;99.90
52731;DHT22;38624;53.242;6.974;2022-07-24T05:41:08;16.90;99.90
52731;DHT22;38624;53.242;6.974;2022-07-24T05:43:34;16.90;99.90
52731;DHT22;38624;53.242;6.974;2022-07-24T05:45:59;17.00;99.90
52731;DHT22;38624;53.242;6.974;2022-07-24T05:48:25;16.90;99.90
52731;DHT22;38624;53.242;6.974;2022-07-24T05:50:51;17.00;99.90
52731;DHT22;38624;53.242;6.974;2022-07-24T05:53:16;17.00;99.90
52731;DHT22;38624;53.242;6.974;2022-07-24T05:55:42;17.10;99.90
52731;DHT22;38624;53.242;6.974;2022-07-24T05:58:08;17.30;99.90
52731;DHT22;38624;53.242;6.974;2022-07-24T06:00:33;17.50;99.90
52731;DHT22;38624;53.242;6.974;2022-07-24T06:02:59;17.70;99.90
52731;DHT22;38624;53.242;6.974;2022-07-24T06:05:25;17.90;99.90
52731;DHT22;38624;53.242;6.974;2022-07-24T06:07:50;18.10;99.90
52731;DHT22;38624;53.242;6.974;2022-07-24T06:10:16;18.30;99.90
52731;DHT22;38624;53.242;6.974;2022-07-24T06:12:42;18.50;99.90
52731;DHT22;38624;53.242;6.974;2022-07-24T06:15:08;18.60;99.90
52731;DHT22;38624;53.242;6.974;2022-07-24T06:17:34;18.60;99.90
52731;DHT22;38624;53.242;6.974;2022-07-24T06:20:00;18.50;99.90
52731;DHT22;38624;53.242;6.974;2022-07-24T06:22:26;18.40;99.90
52731;DHT22;38624;53.242;6.974;2022-07-24T06:24:51;18.40;99.90
52731;DHT22;38624;53.242;6.974;2022-07-24T06:27:17;18.40;99.90
52731;DHT22;38624;53.242;6.974;2022-07-24T06:29:43;18.40;99.90
52731;DHT22;38624;53.242;6.974;2022-07-24T06:32:09;18.60;99.90
52731;DHT22;38624;53.242;6.974;2022-07-24T06:34:34;18.80;99.90
52731;DHT22;38624;53.242;6.974;2022-07-24T06:37:00;18.90;99.90
52731;DHT22;38624;53.242;6.974;2022-07-24T06:39:26;19.10;99.90
52731;DHT22;38624;53.242;6.974;2022-07-24T06:41:51;19.30;99.90
52731;DHT22;38624;53.242;6.974;2022-07-24T06:44:17;19.50;99.90
52731;DHT22;38624;53.242;6.974;2022-07-24T06:46:43;19.70;99.90
52731;DHT22;38624;53.242;6.974;2022-07-24T06:49:08;19.90;99.90
52731;DHT22;38624;53.242;6.974;2022-07-24T06:51:34;20.00;99.90
52731;DHT22;38624;53.242;6.974;2022-07-24T06:54:00;20.00;99.90
52731;DHT22;38624;53.242;6.974;2022-07-24T06:56:25;20.00;99.90
52731;DHT22;38624;53.242;6.974;2022-07-24T06:58:51;20.10;99.90
52731;DHT22;38624;53.242;6.974;2022-07-24T07:01:16;20.00;99.90
52731;DHT22;38624;53.242;6.974;2022-07-24T07:03:42;20.10;99.90
52731;DHT22;38624;53.242;6.974;2022-07-24T07:06:08;20.10;99.90
52731;DHT22;38624;53.242;6.974;2022-07-24T07:08:34;20.10;99.90
52731;DHT22;38624;53.242;6.974;2022-07-24T07:11:00;20.10;99.90
52731;DHT22;38624;53.242;6.974;2022-07-24T07:13:25;20.10;99.90
52731;DHT22;38624;53.242;6.974;2022-07-24T07:15:51;20.20;99.90
52731;DHT22;38624;53.242;6.974;2022-07-24T07:18:17;20.40;99.90
52731;DHT22;38624;53.242;6.974;2022-07-24T07:20:43;20.50;99.90
52731;DHT22;38624;53.242;6.974;2022-07-24T07:23:08;20.70;99.90
52731;DHT22;38624;53.242;6.974;2022-07-24T07:25:34;20.90;99.90
52731;DHT22;38624;53.242;6.974;2022-07-24T07:28:00;21.00;99.90
52731;DHT22;38624;53.242;6.974;2022-07-24T07:30:26;21.20;99.90
52731;DHT22;38624;53.242;6.974;2022-07-24T07:32:52;21.20;99.90
52731;DHT22;38624;53.242;6.974;2022-07-24T07:35:17;21.30;99.90
52731;DHT22;38624;53.242;6.974;2022-07-24T07:37:46;21.30;99.90
52731;DHT22;38624;53.242;6.974;2022-07-24T07:40:12;21.40;99.90
52731;DHT22;38624;53.242;6.974;2022-07-24T07:42:38;21.40;99.90
52731;DHT22;38624;53.242;6.974;2022-07-24T07:45:04;21.50;99.90
52731;DHT22;38624;53.242;6.974;2022-07-24T07:47:29;21.60;99.90
52731;DHT22;38624;53.242;6.974;2022-07-24T07:49:55;21.80;99.90
52731;DHT22;38624;53.242;6.974;2022-07-24T07:52:21;21.90;99.90
52731;DHT22;38624;53.242;6.974;2022-07-24T07:54:46;22.00;99.90
52731;DHT22;38624;53.242;6.974;2022-07-24T07:57:12;22.10;99.90
52731;DHT22;38624;53.242;6.974;2022-07-24T07:59:38;22.20;99.90
52731;DHT22;38624;53.242;6.974;2022-07-24T08:02:03;22.40;99.90
52731;DHT22;38624;53.242;6.974;2022-07-24T08:04:29;22.50;99.90
52731;DHT22;38624;53.242;6.974;2022-07-24T08:06:55;22.70;99.90
52731;DHT22;38624;53.242;6.974;2022-07-24T08:09:21;22.80;99.90
52731;DHT22;38624;53.242;6.974;2022-07-24T08:11:46;23.00;99.90
52731;DHT22;38624;53.242;6.974;2022-07-24T08:14:12;23.20;99.90
52731;DHT22;38624;53.242;6.974;2022-07-24T08:16:38;23.40;99.90
52731;DHT22;38624;53.242;6.974;2022-07-24T08:19:03;23.70;99.90
52731;DHT22;38624;53.242;6.974;2022-07-24T08:21:29;23.80;99.90
52731;DHT22;38624;53.242;6.974;2022-07-24T08:23:56;23.80;99.90
52731;DHT22;38624;53.242;6.974;2022-07-24T08:26:22;23.80;99.90
52731;DHT22;38624;53.242;6.974;2022-07-24T08:28:48;23.70;99.90
52731;DHT22;38624;53.242;6.974;2022-07-24T08:31:14;23.70;99.90
52731;DHT22;38624;53.242;6.974;2022-07-24T08:33:39;23.70;99.90
52731;DHT22;38624;53.242;6.974;2022-07-24T08:36:05;23.70;99.90
52731;DHT22;38624;53.242;6.974;2022-07-24T08:38:31;23.60;99.90
52731;DHT22;38624;53.242;6.974;2022-07-24T08:40:57;23.40;99.90
52731;DHT22;38624;53.242;6.974;2022-07-24T08:43:24;23.40;99.90
52731;DHT22;38624;53.242;6.974;2022-07-24T08:45:54;23.50;99.90
52731;DHT22;38624;53.242;6.974;2022-07-24T08:48:21;23.80;99.90
52731;DHT22;38624;53.242;6.974;2022-07-24T08:50:47;24.00;99.90
52731;DHT22;38624;53.242;6.974;2022-07-24T08:53:12;24.30;99.90
52731;DHT22;38624;53.242;6.974;2022-07-24T08:55:39;24.40;99.90
52731;DHT22;38624;53.242;6.974;2022-07-24T08:58:05;24.60;99.90
52731;DHT22;38624;53.242;6.974;2022-07-24T09:00:32;24.80;99.90
52731;DHT22;38624;53.242;6.974;2022-07-24T09:02:58;24.80;99.90
52731;DHT22;38624;53.242;6.974;2022-07-24T09:05:23;25.10;99.90
52731;DHT22;38624;53.242;6.974;2022-07-24T09:07:49;25.20;99.90
52731;DHT22;38624;53.242;6.974;2022-07-24T09:10:16;25.20;99.90
52731;DHT22;38624;53.242;6.974;2022-07-24T09:12:44;25.30;99.90
52731;DHT22;38624;53.242;6.974;2022-07-24T09:15:19;25.30;99.90
52731;DHT22;38624;53.242;6.974;2022-07-24T09:18:03;25.30;99.90
52731;DHT22;38624;53.242;6.974;2022-07-24T09:20:28;25.10;99.90
52731;DHT22;38624;53.242;6.974;2022-07-24T09:22:59;25.10;99.90
52731;DHT22;38624;53.242;6.974;2022-07-24T09:25:26;25.20;99.90
52731;DHT22;38624;53.242;6.974;2022-07-24T09:27:57;25.10;99.90
52731;DHT22;38624;53.242;6.974;2022-07-24T09:33:01;25.10;99.90
52731;DHT22;38624;53.242;6.974;2022-07-24T09:37:57;25.10;99.90
52731;DHT22;38624;53.242;6.974;2022-07-24T09:40:32;25.20;99.90
52731;DHT22;38624;53.242;6.974;2022-07-24T09:43:19;25.50;99.90
52731;DHT22;38624;53.242;6.974;2022-07-24T09:46:08;25.70;99.70
52731;DHT22;38624;53.242;6.974;2022-07-24T09:48:59;25.70;99.90
52731;DHT22;38624;53.242;6.974;2022-07-24T09:51:27;25.60;99.90
52731;DHT22;38624;53.242;6.974;2022-07-24T09:53:58;25.60;99.90
52731;DHT22;38624;53.242;6.974;2022-07-24T09:56:24;25.60;99.70
52731;DHT22;38624;53.242;6.974;2022-07-24T09:58:55;25.80;99.40
52731;DHT22;38624;53.242;6.974;2022-07-24T10:01:25;26.00;98.80
52731;DHT22;38624;53.242;6.974;2022-07-24T10:03:52;26.00;98.00
52731;DHT22;38624;53.242;6.974;2022-07-24T10:06:21;26.00;98.70
52731;DHT22;38624;53.242;6.974;2022-07-24T10:08:49;26.00;98.90
52731;DHT22;38624;53.242;6.974;2022-07-24T10:11:16;26.10;98.20
52731;DHT22;38624;53.242;6.974;2022-07-24T10:13:42;26.00;98.40
52731;DHT22;38624;53.242;6.974;2022-07-24T10:21:20;26.30;97.20
52731;DHT22;38624;53.242;6.974;2022-07-24T10:26:47;26.60;96.00
52731;DHT22;38624;53.242;6.974;2022-07-24T10:29:21;26.50;96.20
52731;DHT22;38624;53.242;6.974;2022-07-24T10:31:55;26.20;95.80
52731;DHT22;38624;53.242;6.974;2022-07-24T10:37:07;26.30;96.50
52731;DHT22;38624;53.242;6.974;2022-07-24T10:42:29;27.00;96.70
52731;DHT22;38624;53.242;6.974;2022-07-24T10:47:39;27.20;95.30
52731;DHT22;38624;53.242;6.974;2022-07-24T10:50:05;27.20;94.90
52731;DHT22;38624;53.242;6.974;2022-07-24T10:52:32;27.10;94.10
52731;DHT22;38624;53.242;6.974;2022-07-24T10:58:03;27.00;94.10
52731;DHT22;38624;53.242;6.974;2022-07-24T11:00:35;27.30;93.00
52731;DHT22;38624;53.242;6.974;2022-07-24T11:03:05;27.70;94.80
52731;DHT22;38624;53.242;6.974;2022-07-24T11:05:36;27.70;93.50
52731;DHT22;38624;53.242;6.974;2022-07-24T11:10:52;27.90;92.90
52731;DHT22;38624;53.242;6.974;2022-07-24T11:26:49;29.20;90.50
52731;DHT22;38624;53.242;6.974;2022-07-24T11:31:50;29.00;90.70
52731;DHT22;38624;53.242;6.974;2022-07-24T11:34:16;29.00;91.20
52731;DHT22;38624;53.242;6.974;2022-07-24T11:36:46;29.20;90.40
52731;DHT22;38624;53.242;6.974;2022-07-24T11:39:14;29.20;90.30
52731;DHT22;38624;53.242;6.974;2022-07-24T11:44:10;29.80;89.50
52731;DHT22;38624;53.242;6.974;2022-07-24T11:46:36;30.00;87.80
52731;DHT22;38624;53.242;6.974;2022-07-24T11:49:07;30.10;86.40
52731;DHT22;38624;53.242;6.974;2022-07-24T11:51:44;30.20;85.20
52731;DHT22;38624;53.242;6.974;2022-07-24T11:54:15;30.30;84.80
52731;DHT22;38624;53.242;6.974;2022-07-24T11:56:45;30.50;84.60
52731;DHT22;38624;53.242;6.974;2022-07-24T11:59:30;30.80;83.30
52731;DHT22;38624;53.242;6.974;2022-07-24T12:02:03;31.00;81.40
52731;DHT22;38624;53.242;6.974;2022-07-24T12:04:29;31.10;82.70
52731;DHT22;38624;53.242;6.974;2022-07-24T12:06:55;31.10;82.70
52731;DHT22;38624;53.242;6.974;2022-07-24T12:09:21;31.50;82.30
52731;DHT22;38624;53.242;6.974;2022-07-24T12:11:46;32.00;81.20
52731;DHT22;38624;53.242;6.974;2022-07-24T12:14:14;32.30;81.20
52731;DHT22;38624;53.242;6.974;2022-07-24T12:16:41;32.20;79.80
52731;DHT22;38624;53.242;6.974;2022-07-24T12:19:23;32.20;78.90
52731;DHT22;38624;53.242;6.974;2022-07-24T12:21:51;32.00;80.00
52731;DHT22;38624;53.242;6.974;2022-07-24T12:24:18;31.70;79.20
52731;DHT22;38624;53.242;6.974;2022-07-24T12:29:18;31.50;77.00
52731;DHT22;38624;53.242;6.974;2022-07-24T12:31:44;31.40;78.20
52731;DHT22;38624;53.242;6.974;2022-07-24T12:34:10;31.60;79.30
52731;DHT22;38624;53.242;6.974;2022-07-24T12:36:36;31.80;78.10
52731;DHT22;38624;53.242;6.974;2022-07-24T12:39:03;32.30;77.50
52731;DHT22;38624;53.242;6.974;2022-07-24T12:41:31;32.60;77.20
52731;DHT22;38624;53.242;6.974;2022-07-24T12:44:02;33.00;75.50
52731;DHT22;38624;53.242;6.974;2022-07-24T12:46:34;33.30;74.40
52731;DHT22;38624;53.242;6.974;2022-07-24T12:49:09;33.40;73.20
52731;DHT22;38624;53.242;6.974;2022-07-24T12:51:53;33.80;71.70
52731;DHT22;38624;53.242;6.974;2022-07-24T12:54:35;34.00;72.20
52731;DHT22;38624;53.242;6.974;2022-07-24T12:57:07;34.20;71.20
52731;DHT22;38624;53.242;6.974;2022-07-24T12:59:39;34.50;69.20
52731;DHT22;38624;53.242;6.974;2022-07-24T13:02:16;34.50;70.40
52731;DHT22;38624;53.242;6.974;2022-07-24T13:07:12;35.20;67.30
52731;DHT22;38624;53.242;6.974;2022-07-24T13:09:39;35.70;67.10
52731;DHT22;38624;53.242;6.974;2022-07-24T13:12:06;35.60;66.20
52731;DHT22;38624;53.242;6.974;2022-07-24T13:14:32;35.20;65.60
52731;DHT22;38624;53.242;6.974;2022-07-24T13:17:07;34.90;66.40
52731;DHT22;38624;53.242;6.974;2022-07-24T13:19:43;35.00;66.80
52731;DHT22;38624;53.242;6.974;2022-07-24T13:22:09;35.50;65.90
52731;DHT22;38624;53.242;6.974;2022-07-24T13:24:36;36.10;65.20
52731;DHT22;38624;53.242;6.974;2022-07-24T13:27:04;36.50;63.50
52731;DHT22;38624;53.242;6.974;2022-07-24T13:29:30;36.80;65.50
52731;DHT22;38624;53.242;6.974;2022-07-24T13:31:56;37.20;63.80
52731;DHT22;38624;53.242;6.974;2022-07-24T13:34:23;37.60;61.80
52731;DHT22;38624;53.242;6.974;2022-07-24T13:36:49;37.90;62.70
52731;DHT22;38624;53.242;6.974;2022-07-24T13:39:14;38.30;63.70
52731;DHT22;38624;53.242;6.974;2022-07-24T13:41:40;38.50;61.00
52731;DHT22;38624;53.242;6.974;2022-07-24T13:44:06;38.70;60.20
52731;DHT22;38624;53.242;6.974;2022-07-24T13:46:33;39.00;61.30
52731;DHT22;38624;53.242;6.974;2022-07-24T13:49:01;38.40;60.50
52731;DHT22;38624;53.242;6.974;2022-07-24T13:51:27;38.20;60.50
52731;DHT22;38624;53.242;6.974;2022-07-24T13:53:53;38.00;59.60
52731;DHT22;38624;53.242;6.974;2022-07-24T13:56:20;38.80;60.10
52731;DHT22;38624;53.242;6.974;2022-07-24T13:58:47;39.40;59.80
52731;DHT22;38624;53.242;6.974;2022-07-24T14:01:13;39.70;57.90
52731;DHT22;38624;53.242;6.974;2022-07-24T14:03:40;40.00;57.30
52731;DHT22;38624;53.242;6.974;2022-07-24T14:06:08;40.10;56.70
52731;DHT22;38624;53.242;6.974;2022-07-24T14:08:34;40.60;56.90
52731;DHT22;38624;53.242;6.974;2022-07-24T14:11:00;41.00;57.70
52731;DHT22;38624;53.242;6.974;2022-07-24T14:13:26;41.20;55.40
52731;DHT22;38624;53.242;6.974;2022-07-24T14:15:51;41.40;55.00
52731;DHT22;38624;53.242;6.974;2022-07-24T14:18:17;41.80;54.60
52731;DHT22;38624;53.242;6.974;2022-07-24T14:20:43;41.90;53.70
52731;DHT22;38624;53.242;6.974;2022-07-24T14:23:09;42.00;53.00
52731;DHT22;38624;53.242;6.974;2022-07-24T14:25:34;42.10;52.70
52731;DHT22;38624;53.242;6.974;2022-07-24T14:28:00;42.30;52.50
52731;DHT22;38624;53.242;6.974;2022-07-24T14:30:26;42.30;52.00
52731;DHT22;38624;53.242;6.974;2022-07-24T14:32:52;42.40;51.90
52731;DHT22;38624;53.242;6.974;2022-07-24T14:35:18;42.60;51.30
52731;DHT22;38624;53.242;6.974;2022-07-24T14:37:43;42.60;51.10
52731;DHT22;38624;53.242;6.974;2022-07-24T14:40:10;42.90;51.80
52731;DHT22;38624;53.242;6.974;2022-07-24T14:42:36;43.10;52.30
52731;DHT22;38624;53.242;6.974;2022-07-24T14:45:03;43.40;51.10
52731;DHT22;38624;53.242;6.974;2022-07-24T14:47:29;43.50;49.80
52731;DHT22;38624;53.242;6.974;2022-07-24T14:49:55;43.60;49.20
52731;DHT22;38624;53.242;6.974;2022-07-24T14:52:22;43.70;48.80
52731;DHT22;38624;53.242;6.974;2022-07-24T14:54:48;43.60;49.30
52731;DHT22;38624;53.242;6.974;2022-07-24T14:57:15;43.70;48.90
52731;DHT22;38624;53.242;6.974;2022-07-24T14:59:41;43.50;48.60
52731;DHT22;38624;53.242;6.974;2022-07-24T15:02:08;43.80;48.60
52731;DHT22;38624;53.242;6.974;2022-07-24T15:04:35;43.70;47.10
52731;DHT22;38624;53.242;6.974;2022-07-24T15:07:01;43.70;47.00
52731;DHT22;38624;53.242;6.974;2022-07-24T15:09:27;44.00;47.70
52731;DHT22;38624;53.242;6.974;2022-07-24T15:11:52;44.20;47.80
52731;DHT22;38624;53.242;6.974;2022-07-24T15:14:18;44.30;47.10
52731;DHT22;38624;53.242;6.974;2022-07-24T15:16:44;44.20;47.00
52731;DHT22;38624;53.242;6.974;2022-07-24T15:19:10;44.10;46.20
52731;DHT22;38624;53.242;6.974;2022-07-24T15:21:36;44.30;46.50
52731;DHT22;38624;53.242;6.974;2022-07-24T15:24:03;44.60;47.20
52731;DHT22;38624;53.242;6.974;2022-07-24T15:26:29;44.50;46.60
52731;DHT22;38624;53.242;6.974;2022-07-24T15:28:55;44.60;46.50
52731;DHT22;38624;53.242;6.974;2022-07-24T15:31:21;44.50;46.00
52731;DHT22;38624;53.242;6.974;2022-07-24T15:33:47;44.80;46.40
52731;DHT22;38624;53.242;6.974;2022-07-24T15:36:13;45.00;46.50
52731;DHT22;38624;53.242;6.974;2022-07-24T15:38:39;44.90;45.20
52731;DHT22;38624;53.242;6.974;2022-07-24T15:41:05;44.80;45.50
52731;DHT22;38624;53.242;6.974;2022-07-24T15:43:31;45.10;45.30
52731;DHT22;38624;53.242;6.974;2022-07-24T15:45:57;45.30;45.80
52731;DHT22;38624;53.242;6.974;2022-07-24T15:48:23;45.30;45.70
52731;DHT22;38624;53.242;6.974;2022-07-24T15:50:49;45.30;45.40
52731;DHT22;38624;53.242;6.974;2022-07-24T15:53:15;45.40;45.10
52731;DHT22;38624;53.242;6.974;2022-07-24T15:55:42;45.30;45.00
52731;DHT22;38624;53.242;6.974;2022-07-24T15:58:07;45.50;45.20
52731;DHT22;38624;53.242;6.974;2022-07-24T16:00:33;45.60;45.00
52731;DHT22;38624;53.242;6.974;2022-07-24T16:02:59;45.50;44.20
52731;DHT22;38624;53.242;6.974;2022-07-24T16:05:25;45.50;44.30
52731;DHT22;38624;53.242;6.974;2022-07-24T16:07:52;45.70;44.70
52731;DHT22;38624;53.242;6.974;2022-07-24T16:10:18;45.90;44.90
52731;DHT22;38624;53.242;6.974;2022-07-24T16:12:44;46.10;45.00
52731;DHT22;38624;53.242;6.974;2022-07-24T16:15:11;46.00;44.40
52731;DHT22;38624;53.242;6.974;2022-07-24T16:17:38;46.00;45.10